Time;durP1;ratioP1;P1;durP2;ratioP2;P2;SDS_P1;SDS_P2;PMS_P1;PMS_P2;Temp;Humidity;BMP_temperature;BMP_pressure;BME280_temperature;BME280_humidity;BME280_pressure;Samples;Min_cycle;Max_cycle;Signal;HPM_P1;HPM_P2
2022/04/03 00:00:18;;;;;;;10.50;5.33;;;;;;;;;;5020614;28;20985;-76
2022/04/03 00:02:45;;;;;;;10.13;4.87;;;;;;;;;;5025453;28;20900;-78
2022/04/03 00:05:13;;;;;;;15.70;5.17;;;;;;;;;;5021289;28;20886;-78
2022/04/03 00:07:41;;;;;;;11.23;5.50;;;;;;;;;;5022949;28;20491;-76
2022/04/03 00:10:09;;;;;;;12.70;4.93;;;;;;;;;;5017370;28;20995;-76
2022/04/03 00:12:36;;;;;;;16.43;5.60;;;;;;;;;;5023219;28;20463;-77
2022/04/03 00:15:04;;;;;;;9.10;4.50;;;;;;;;;;5022827;28;20580;-77
2022/04/03 00:17:31;;;;;;;12.53;4.47;;;;;;;;;;5026441;28;21040;-77
2022/04/03 00:19:58;;;;;;;11.90;4.93;;;;;;;;;;5027646;28;20489;-78
2022/04/03 00:22:26;;;;;;;11.87;5.73;;;;;;;;;;5023009;28;20519;-78
2022/04/03 00:24:54;;;;;;;13.37;5.30;;;;;;;;;;5025872;28;20839;-78
2022/04/03 00:27:21;;;;;;;13.63;5.70;;;;;;;;;;5022018;28;20466;-78
2022/04/03 00:29:48;;;;;;;17.77;5.97;;;;;;;;;;5029263;28;20485;-77
2022/04/03 00:32:16;;;;;;;14.40;6.47;;;;;;;;;;5026128;28;20455;-77
2022/04/03 00:34:43;;;;;;;17.03;5.80;;;;;;;;;;5023213;28;20490;-78
2022/04/03 00:37:10;;;;;;;10.77;5.33;;;;;;;;;;5026320;28;20454;-77
2022/04/03 00:39:37;;;;;;;13.83;5.90;;;;;;;;;;5027432;28;21015;-77
2022/04/03 00:42:07;;;;;;;13.63;5.70;;;;;;;;;;5028810;28;20486;-77
2022/04/03 00:44:35;;;;;;;9.40;4.80;;;;;;;;;;5025073;28;20455;-77
2022/04/03 00:47:02;;;;;;;9.17;5.00;;;;;;;;;;5024617;28;20467;-76
2022/04/03 00:49:30;;;;;;;12.93;4.57;;;;;;;;;;5022445;28;20482;-77
2022/04/03 00:51:57;;;;;;;12.70;5.17;;;;;;;;;;5022859;28;20554;-77
2022/04/03 00:54:24;;;;;;;10.33;5.10;;;;;;;;;;5025337;28;20491;-78
2022/04/03 00:56:51;;;;;;;11.07;5.00;;;;;;;;;;5027593;28;20904;-77
2022/04/03 00:59:20;;;;;;;14.73;5.70;;;;;;;;;;5022094;28;21091;-77
2022/04/03 01:01:47;;;;;;;12.00;5.17;;;;;;;;;;5022381;28;20556;-77
2022/04/03 01:04:14;;;;;;;12.13;5.10;;;;;;;;;;5026230;28;20457;-76
2022/04/03 01:06:41;;;;;;;12.40;5.20;;;;;;;;;;5032852;28;20487;-77
2022/04/03 01:09:09;;;;;;;11.20;4.93;;;;;;;;;;5025648;28;20566;-77
2022/04/03 01:11:36;;;;;;;11.17;4.80;;;;;;;;;;5026629;28;20570;-76
2022/04/03 01:14:05;;;;;;;11.27;5.30;;;;;;;;;;5024718;28;20494;-77
2022/04/03 01:16:35;;;;;;;15.03;5.73;;;;;;;;;;5023605;28;20458;-77
2022/04/03 01:19:03;;;;;;;16.57;5.63;;;;;;;;;;5026065;28;20478;-77
2022/04/03 01:21:30;;;;;;;12.27;4.90;;;;;;;;;;5022452;28;20556;-76
2022/04/03 01:23:57;;;;;;;13.47;5.27;;;;;;;;;;5022636;28;20461;-77
2022/04/03 01:26:28;;;;;;;14.33;5.33;;;;;;;;;;5023405;28;20494;-77
2022/04/03 01:28:55;;;;;;;13.40;6.20;;;;;;;;;;5023552;28;20459;-77
2022/04/03 01:31:22;;;;;;;14.07;5.30;;;;;;;;;;5020096;28;20542;-77
2022/04/03 01:33:50;;;;;;;10.37;5.43;;;;;;;;;;5025770;28;20497;-77
2022/04/03 01:36:17;;;;;;;10.97;5.20;;;;;;;;;;5022813;28;20546;-76
2022/04/03 01:38:44;;;;;;;12.13;5.20;;;;;;;;;;5026808;28;20466;-77
2022/04/03 01:41:13;;;;;;;13.50;4.83;;;;;;;;;;5021716;28;20470;-77
2022/04/03 01:43:41;;;;;;;10.13;5.07;;;;;;;;;;5021449;28;20549;-76
2022/04/03 01:46:08;;;;;;;14.80;5.30;;;;;;;;;;5026366;28;20454;-77
2022/04/03 01:48:35;;;;;;;12.97;5.73;;;;;;;;;;5027743;28;20842;-76
2022/04/03 01:51:03;;;;;;;10.13;5.27;;;;;;;;;;5023902;28;20471;-76
2022/04/03 01:53:30;;;;;;;10.93;5.43;;;;;;;;;;5022612;28;20497;-76
2022/04/03 01:56:01;;;;;;;14.30;4.93;;;;;;;;;;5024836;28;20493;-77
2022/04/03 01:58:28;;;;;;;12.67;5.40;;;;;;;;;;5020684;28;20465;-77
2022/04/03 02:00:56;;;;;;;11.93;5.60;;;;;;;;;;5024228;28;20856;-76
2022/04/03 02:03:24;;;;;;;10.00;4.83;;;;;;;;;;5022916;28;20458;-76
2022/04/03 02:05:51;;;;;;;11.23;5.00;;;;;;;;;;5019233;28;20495;-77
2022/04/03 02:08:18;;;;;;;11.63;5.57;;;;;;;;;;5019529;28;20462;-77
2022/04/03 02:10:45;;;;;;;12.57;5.33;;;;;;;;;;5021256;28;21004;-77
2022/04/03 02:13:13;;;;;;;12.43;4.80;;;;;;;;;;5022918;28;20990;-77
2022/04/03 02:15:40;;;;;;;11.80;5.57;;;;;;;;;;5019703;28;20486;-77
2022/04/03 02:18:09;;;;;;;10.43;5.53;;;;;;;;;;5020591;28;20985;-77
2022/04/03 02:20:36;;;;;;;11.07;5.13;;;;;;;;;;5022933;28;20504;-77
2022/04/03 02:23:05;;;;;;;13.47;5.43;;;;;;;;;;5025594;28;20471;-77
2022/04/03 02:25:32;;;;;;;12.10;5.20;;;;;;;;;;5022686;28;20549;-77
2022/04/03 02:27:59;;;;;;;11.47;5.17;;;;;;;;;;5023506;28;20477;-77
2022/04/03 02:30:27;;;;;;;11.37;5.60;;;;;;;;;;5022953;28;20590;-77
2022/04/03 02:32:54;;;;;;;16.37;6.27;;;;;;;;;;5023581;28;20466;-77
2022/04/03 02:35:23;;;;;;;14.27;6.00;;;;;;;;;;5022427;28;20483;-77
2022/04/03 02:37:51;;;;;;;12.10;5.53;;;;;;;;;;5029234;28;20555;-77
2022/04/03 02:40:18;;;;;;;9.20;4.60;;;;;;;;;;5022077;28;21065;-77
2022/04/03 02:42:46;;;;;;;12.83;5.83;;;;;;;;;;5022307;28;20485;-77
2022/04/03 02:45:15;;;;;;;12.07;5.70;;;;;;;;;;5023380;28;20459;-77
2022/04/03 02:47:48;;;;;;;11.87;5.03;;;;;;;;;;5019856;28;20494;-76
2022/04/03 02:50:16;;;;;;;10.23;5.07;;;;;;;;;;5019295;28;20479;-77
2022/04/03 02:52:45;;;;;;;9.83;5.27;;;;;;;;;;5017325;28;20473;-77
2022/04/03 02:55:12;;;;;;;13.90;5.27;;;;;;;;;;5020891;28;20498;-77
2022/04/03 02:57:39;;;;;;;12.10;5.03;;;;;;;;;;5017730;28;20554;-76
2022/04/03 03:00:07;;;;;;;12.77;4.97;;;;;;;;;;5021046;28;20565;-77
2022/04/03 03:02:34;;;;;;;11.23;4.97;;;;;;;;;;5015970;28;20479;-77
2022/04/03 03:05:04;;;;;;;10.20;5.27;;;;;;;;;;5021385;28;20459;-76
2022/04/03 03:07:37;;;;;;;11.73;5.27;;;;;;;;;;5018730;28;20516;-76
2022/04/03 03:10:06;;;;;;;13.63;4.73;;;;;;;;;;5017439;28;20876;-76
2022/04/03 03:12:33;;;;;;;12.73;4.77;;;;;;;;;;5019625;28;20949;-77
2022/04/03 03:15:00;;;;;;;12.83;4.97;;;;;;;;;;5018543;28;20594;-76
2022/04/03 03:17:27;;;;;;;10.20;4.23;;;;;;;;;;5018210;28;20466;-76
2022/04/03 03:19:54;;;;;;;14.77;5.43;;;;;;;;;;5016594;28;20491;-76
2022/04/03 03:22:22;;;;;;;11.50;5.10;;;;;;;;;;5017574;28;20465;-76
2022/04/03 03:24:49;;;;;;;12.73;4.50;;;;;;;;;;5019495;28;20990;-76
2022/04/03 03:27:17;;;;;;;15.33;5.03;;;;;;;;;;5021311;28;21021;-76
2022/04/03 03:29:44;;;;;;;10.57;4.73;;;;;;;;;;5018788;28;20490;-77
2022/04/03 03:32:12;;;;;;;12.50;5.47;;;;;;;;;;5018538;28;20465;-76
2022/04/03 03:34:39;;;;;;;11.63;4.53;;;;;;;;;;5015930;28;20466;-77
2022/04/03 03:37:06;;;;;;;12.27;4.97;;;;;;;;;;5019893;28;20470;-77
2022/04/03 03:39:33;;;;;;;14.67;5.17;;;;;;;;;;5018824;28;20478;-76
2022/04/03 03:42:00;;;;;;;14.40;4.90;;;;;;;;;;5013290;28;20463;-77
2022/04/03 03:44:29;;;;;;;12.97;5.00;;;;;;;;;;5018743;28;20835;-77
2022/04/03 03:46:56;;;;;;;14.60;4.97;;;;;;;;;;5015536;28;20474;-77
2022/04/03 03:49:23;;;;;;;11.00;4.90;;;;;;;;;;5021858;28;20608;-77
2022/04/03 03:51:50;;;;;;;13.50;5.17;;;;;;;;;;5022777;28;20984;-77
2022/04/03 03:54:18;;;;;;;11.50;5.10;;;;;;;;;;5027235;28;20459;-77
2022/04/03 03:56:45;;;;;;;11.57;5.00;;;;;;;;;;5024587;28;20489;-78
2022/04/03 03:59:12;;;;;;;11.33;5.27;;;;;;;;;;5024725;28;20484;-76
2022/04/03 04:01:41;;;;;;;12.47;4.40;;;;;;;;;;5022981;28;20992;-77
2022/04/03 04:04:08;;;;;;;10.77;4.67;;;;;;;;;;5027315;28;20569;-77
2022/04/03 04:06:35;;;;;;;12.40;4.50;;;;;;;;;;5027567;28;20458;-77
2022/04/03 04:09:03;;;;;;;17.60;5.27;;;;;;;;;;5024601;28;20521;-77
2022/04/03 04:11:30;;;;;;;8.77;4.50;;;;;;;;;;5024124;28;20463;-77
2022/04/03 04:13:57;;;;;;;13.13;4.90;;;;;;;;;;5024708;28;21067;-77
2022/04/03 04:16:24;;;;;;;12.13;4.43;;;;;;;;;;5028806;28;20494;-77
2022/04/03 04:18:53;;;;;;;12.27;5.10;;;;;;;;;;5022138;28;20455;-77
2022/04/03 04:21:20;;;;;;;11.17;4.97;;;;;;;;;;5021685;28;20537;-78
2022/04/03 04:23:47;;;;;;;12.10;4.53;;;;;;;;;;5023558;28;20466;-77
2022/04/03 04:26:15;;;;;;;17.00;5.60;;;;;;;;;;5024013;28;20463;-77
2022/04/03 04:28:47;;;;;;;11.60;4.77;;;;;;;;;;5025118;28;20473;-78
2022/04/03 04:31:15;;;;;;;13.17;4.70;;;;;;;;;;5030285;28;20462;-77
2022/04/03 04:33:42;;;;;;;10.77;4.47;;;;;;;;;;5044199;22;20505;-79
2022/04/03 04:36:10;;;;;;;15.43;4.50;;;;;;;;;;5038919;28;20495;-79
2022/04/03 04:38:38;;;;;;;10.53;3.93;;;;;;;;;;5035824;28;20474;-78
2022/04/03 04:41:05;;;;;;;11.03;4.70;;;;;;;;;;5040808;28;20454;-79
2022/04/03 04:43:32;;;;;;;10.70;4.43;;;;;;;;;;5048622;28;20483;-79
2022/04/03 04:45:59;;;;;;;11.23;4.40;;;;;;;;;;5047190;28;20954;-79
2022/04/03 04:48:27;;;;;;;14.43;4.43;;;;;;;;;;5050084;28;21047;-78
2022/04/03 04:50:54;;;;;;;11.73;4.50;;;;;;;;;;5044300;28;20487;-79
2022/04/03 04:53:23;;;;;;;14.23;5.17;;;;;;;;;;5042399;28;20446;-78
2022/04/03 04:55:50;;;;;;;12.30;5.00;;;;;;;;;;5042362;28;21153;-78
2022/04/03 04:58:17;;;;;;;11.27;4.23;;;;;;;;;;5045436;28;20460;-79
2022/04/03 05:00:45;;;;;;;11.63;4.63;;;;;;;;;;5043947;28;20983;-78
2022/04/03 05:03:13;;;;;;;9.67;4.13;;;;;;;;;;5043598;28;20473;-79
2022/04/03 05:05:40;;;;;;;10.80;3.77;;;;;;;;;;5046264;28;20515;-79
2022/04/03 05:08:08;;;;;;;11.30;4.03;;;;;;;;;;5041566;28;20980;-79
2022/04/03 05:10:36;;;;;;;9.77;4.23;;;;;;;;;;5043589;28;20473;-79
2022/04/03 05:13:04;;;;;;;9.93;3.90;;;;;;;;;;5041061;28;21050;-78
2022/04/03 05:15:32;;;;;;;8.60;3.57;;;;;;;;;;5045179;28;20564;-78
2022/04/03 05:18:00;;;;;;;11.47;4.20;;;;;;;;;;5040255;28;20462;-78
2022/04/03 05:20:27;;;;;;;8.87;4.43;;;;;;;;;;5047001;28;20514;-79
2022/04/03 05:22:54;;;;;;;10.40;4.70;;;;;;;;;;5042804;28;20497;-79
2022/04/03 05:25:21;;;;;;;11.33;4.30;;;;;;;;;;5054067;28;20522;-81
2022/04/03 05:27:50;;;;;;;9.60;3.93;;;;;;;;;;5048474;28;20478;-78
2022/04/03 05:30:17;;;;;;;10.67;4.20;;;;;;;;;;5036473;28;20571;-77
2022/04/03 05:32:44;;;;;;;8.37;3.93;;;;;;;;;;5046839;28;20552;-81
2022/04/03 05:35:13;;;;;;;10.90;4.20;;;;;;;;;;5036986;28;20482;-78
2022/04/03 05:37:40;;;;;;;6.97;3.70;;;;;;;;;;5048676;28;20938;-81
2022/04/03 05:40:10;;;;;;;9.90;4.47;;;;;;;;;;5042462;28;21007;-79
2022/04/03 05:42:37;;;;;;;9.57;4.10;;;;;;;;;;5052736;28;20493;-76
2022/04/03 05:45:06;;;;;;;8.53;3.93;;;;;;;;;;5040347;28;20477;-79
2022/04/03 05:47:34;;;;;;;9.63;3.90;;;;;;;;;;5048421;28;20462;-77
2022/04/03 05:50:01;;;;;;;8.50;4.10;;;;;;;;;;5041264;28;20489;-77
2022/04/03 05:52:28;;;;;;;7.57;3.67;;;;;;;;;;5044621;28;20465;-78
2022/04/03 05:54:55;;;;;;;9.73;4.57;;;;;;;;;;5044960;28;20493;-78
2022/04/03 05:57:22;;;;;;;9.00;4.60;;;;;;;;;;5037913;28;20837;-80
2022/04/03 05:59:50;;;;;;;11.53;4.50;;;;;;;;;;5045373;28;20829;-78
2022/04/03 06:02:18;;;;;;;8.90;4.13;;;;;;;;;;5043836;28;20460;-78
2022/04/03 06:04:46;;;;;;;10.73;4.23;;;;;;;;;;5043392;28;20477;-79
2022/04/03 06:07:13;;;;;;;9.80;4.23;;;;;;;;;;5045589;28;20488;-79
2022/04/03 06:09:40;;;;;;;11.93;4.63;;;;;;;;;;5047261;28;20226;-81
2022/04/03 06:12:08;;;;;;;7.00;3.93;;;;;;;;;;5044270;28;20212;-79
2022/04/03 06:14:35;;;;;;;8.47;4.50;;;;;;;;;;5042458;28;20202;-79
2022/04/03 06:17:02;;;;;;;7.00;3.90;;;;;;;;;;5047386;28;20237;-78
2022/04/03 06:19:31;;;;;;;5.77;3.67;;;;;;;;;;5041535;28;20227;-79
2022/04/03 06:21:58;;;;;;;9.10;3.80;;;;;;;;;;5041049;28;20203;-78
2022/04/03 06:24:25;;;;;;;8.20;4.13;;;;;;;;;;5044850;28;20573;-81
2022/04/03 06:26:55;;;;;;;8.60;3.77;;;;;;;;;;5045598;28;20802;-77
2022/04/03 06:29:22;;;;;;;8.60;3.90;;;;;;;;;;5047905;28;20250;-78
2022/04/03 06:31:49;;;;;;;7.07;3.80;;;;;;;;;;5047648;28;20211;-81
2022/04/03 06:34:16;;;;;;;8.83;4.67;;;;;;;;;;5037550;28;20229;-77
2022/04/03 06:36:45;;;;;;;9.47;4.40;;;;;;;;;;5043778;28;20290;-77
2022/04/03 06:39:12;;;;;;;8.37;4.50;;;;;;;;;;5047667;28;20971;-77
2022/04/03 06:41:39;;;;;;;8.27;4.53;;;;;;;;;;5041639;28;20231;-79
2022/04/03 06:44:06;;;;;;;7.57;4.17;;;;;;;;;;5044504;28;20209;-78
2022/04/03 06:46:34;;;;;;;9.40;4.70;;;;;;;;;;5041446;28;20218;-78
2022/04/03 06:49:01;;;;;;;12.10;4.70;;;;;;;;;;5044388;28;20712;-79
2022/04/03 06:51:29;;;;;;;10.53;5.40;;;;;;;;;;5044875;28;20207;-78
2022/04/03 06:53:57;;;;;;;8.90;4.63;;;;;;;;;;5042647;28;20242;-81
2022/04/03 06:56:24;;;;;;;9.87;4.83;;;;;;;;;;5042633;28;20901;-77
2022/04/03 06:58:51;;;;;;;9.27;4.63;;;;;;;;;;5038848;28;20207;-78
2022/04/03 07:01:18;;;;;;;10.80;4.73;;;;;;;;;;5036998;28;20206;-77
2022/04/03 07:03:46;;;;;;;11.27;4.33;;;;;;;;;;5041038;28;20570;-76
2022/04/03 07:06:13;;;;;;;6.93;3.67;;;;;;;;;;5037284;28;20695;-77
2022/04/03 07:08:41;;;;;;;9.77;4.87;;;;;;;;;;5039084;28;20302;-77
2022/04/03 07:11:10;;;;;;;9.57;4.47;;;;;;;;;;5039698;28;20672;-78
2022/04/03 07:13:37;;;;;;;8.40;4.53;;;;;;;;;;5040221;28;20454;-77
2022/04/03 07:16:05;;;;;;;9.50;4.20;;;;;;;;;;5039701;28;20696;-77
2022/04/03 07:18:32;;;;;;;8.50;4.30;;;;;;;;;;5038454;28;20218;-76
2022/04/03 07:20:59;;;;;;;10.73;5.00;;;;;;;;;;5038940;28;20219;-77
2022/04/03 07:23:26;;;;;;;10.07;5.30;;;;;;;;;;5037699;28;20346;-77
2022/04/03 07:25:53;;;;;;;12.03;6.23;;;;;;;;;;5040292;28;20252;-77
2022/04/03 07:28:22;;;;;;;16.23;7.13;;;;;;;;;;5044676;28;20743;-76
2022/04/03 07:30:49;;;;;;;10.43;5.50;;;;;;;;;;5040169;28;20231;-78
2022/04/03 07:33:20;;;;;;;8.30;4.53;;;;;;;;;;5039442;28;20302;-76
2022/04/03 07:35:48;;;;;;;10.57;4.83;;;;;;;;;;5042228;28;20199;-76
2022/04/03 07:38:15;;;;;;;11.73;5.10;;;;;;;;;;5041922;28;20435;-77
2022/04/03 07:40:46;;;;;;;17.83;6.20;;;;;;;;;;5047166;28;20689;-75
2022/04/03 07:43:17;;;;;;;9.43;5.10;;;;;;;;;;5041709;28;20679;-76
2022/04/03 07:45:46;;;;;;;9.27;4.70;;;;;;;;;;5038724;28;20205;-76
2022/04/03 07:48:13;;;;;;;10.30;4.80;;;;;;;;;;5037705;28;20235;-76
2022/04/03 07:50:40;;;;;;;18.73;6.13;;;;;;;;;;5041471;28;20308;-76
2022/04/03 07:53:07;;;;;;;11.43;5.40;;;;;;;;;;5045455;28;20289;-79
2022/04/03 07:55:35;;;;;;;9.67;4.80;;;;;;;;;;5045308;28;20217;-76
2022/04/03 07:58:02;;;;;;;9.33;4.90;;;;;;;;;;5048609;28;20216;-80
2022/04/03 08:00:30;;;;;;;8.17;4.67;;;;;;;;;;5049511;28;20241;-81
2022/04/03 08:02:58;;;;;;;9.87;4.60;;;;;;;;;;5048912;28;20290;-75
2022/04/03 08:05:25;;;;;;;9.47;4.63;;;;;;;;;;5043338;28;20573;-78
2022/04/03 08:07:55;;;;;;;8.90;4.83;;;;;;;;;;5041635;28;20273;-76
2022/04/03 08:10:22;;;;;;;9.73;4.47;;;;;;;;;;5050246;28;20230;-76
2022/04/03 08:12:50;;;;;;;8.73;4.40;;;;;;;;;;5043152;28;20802;-80
2022/04/03 08:15:19;;;;;;;7.90;4.07;;;;;;;;;;5040981;28;20215;-76
2022/04/03 08:17:46;;;;;;;11.67;3.93;;;;;;;;;;5040892;28;20203;-78
2022/04/03 08:20:16;;;;;;;6.63;3.53;;;;;;;;;;5042959;28;20314;-75
2022/04/03 08:22:44;;;;;;;5.87;2.73;;;;;;;;;;5046915;28;20203;-75
2022/04/03 08:25:12;;;;;;;7.67;5.23;;;;;;;;;;5044732;28;20620;-76
2022/04/03 08:27:43;;;;;;;7.00;4.13;;;;;;;;;;5042828;28;20227;-76
2022/04/03 08:30:11;;;;;;;15.63;10.67;;;;;;;;;;5038840;28;20222;-76
2022/04/03 08:32:38;;;;;;;30.47;21.27;;;;;;;;;;5039643;28;20214;-78
2022/04/03 08:35:06;;;;;;;30.57;23.73;;;;;;;;;;5039435;28;20258;-77
2022/04/03 08:37:34;;;;;;;6.40;2.90;;;;;;;;;;5045164;28;20257;-77
2022/04/03 08:40:03;;;;;;;8.00;3.47;;;;;;;;;;5042615;28;20250;-76
2022/04/03 08:42:30;;;;;;;5.00;2.90;;;;;;;;;;5037826;28;20203;-78
2022/04/03 08:44:58;;;;;;;5.37;3.00;;;;;;;;;;5038732;28;20322;-77
2022/04/03 08:47:26;;;;;;;4.23;2.73;;;;;;;;;;5036750;28;20281;-75
2022/04/03 08:49:55;;;;;;;6.73;4.10;;;;;;;;;;5038148;28;20215;-78
2022/04/03 08:52:22;;;;;;;4.53;2.60;;;;;;;;;;5036425;28;20289;-76
2022/04/03 08:54:51;;;;;;;4.97;2.50;;;;;;;;;;5047060;28;20199;-79
2022/04/03 08:57:18;;;;;;;3.50;2.03;;;;;;;;;;5038841;28;20227;-77
2022/04/03 08:59:46;;;;;;;2.53;1.90;;;;;;;;;;5039599;28;20254;-79
2022/04/03 09:02:14;;;;;;;4.87;2.67;;;;;;;;;;5044819;28;20206;-75
2022/04/03 09:04:41;;;;;;;4.83;2.37;;;;;;;;;;5040268;28;20204;-75
2022/04/03 09:07:08;;;;;;;5.27;2.70;;;;;;;;;;5041728;28;20257;-76
2022/04/03 09:09:35;;;;;;;5.27;2.50;;;;;;;;;;5044608;28;20278;-75
2022/04/03 09:12:15;;;;;;;3.37;1.93;;;;;;;;;;5044686;28;20249;-76
2022/04/03 09:14:46;;;;;;;3.70;2.00;;;;;;;;;;5042182;28;20210;-80
2022/04/03 09:17:13;;;;;;;5.33;2.73;;;;;;;;;;5039864;28;20884;-78
2022/04/03 09:19:41;;;;;;;3.63;2.33;;;;;;;;;;5047136;28;20272;-76
2022/04/03 09:22:08;;;;;;;3.93;2.17;;;;;;;;;;5040912;28;20213;-75
2022/04/03 09:24:38;;;;;;;3.47;1.90;;;;;;;;;;5041159;28;20673;-79
2022/04/03 09:27:06;;;;;;;5.43;2.10;;;;;;;;;;5039426;28;20238;-78
2022/04/03 09:29:35;;;;;;;2.87;1.63;;;;;;;;;;5037349;28;20223;-79
2022/04/03 09:32:03;;;;;;;4.03;1.70;;;;;;;;;;5042926;28;20563;-79
2022/04/03 09:34:33;;;;;;;4.07;1.90;;;;;;;;;;5038691;28;20210;-77
2022/04/03 09:37:01;;;;;;;3.33;1.93;;;;;;;;;;5047692;28;20675;-79
2022/04/03 09:39:29;;;;;;;2.20;1.77;;;;;;;;;;5040124;28;20720;-78
2022/04/03 09:41:58;;;;;;;2.73;2.00;;;;;;;;;;5040490;28;20203;-80
2022/04/03 09:44:29;;;;;;;3.73;2.03;;;;;;;;;;5034338;28;20666;-77
2022/04/03 09:47:13;;;;;;;2.40;1.87;;;;;;;;;;5038127;28;20772;-79
2022/04/03 09:49:41;;;;;;;3.27;2.13;;;;;;;;;;5036140;28;20229;-75
2022/04/03 09:52:09;;;;;;;3.47;1.73;;;;;;;;;;5039631;28;20300;-78
2022/04/03 09:54:38;;;;;;;4.23;1.90;;;;;;;;;;5036560;28;20297;-78
2022/04/03 09:57:20;;;;;;;4.70;2.03;;;;;;;;;;5045958;28;20209;-76
2022/04/03 09:59:54;;;;;;;5.43;3.00;;;;;;;;;;5032670;28;20602;-78
2022/04/03 10:02:24;;;;;;;3.27;2.27;;;;;;;;;;5038268;28;20654;-77
2022/04/03 10:04:51;;;;;;;3.93;2.50;;;;;;;;;;5037013;28;20250;-78
2022/04/03 10:07:22;;;;;;;3.90;2.13;;;;;;;;;;5033029;28;20215;-75
2022/04/03 10:09:50;;;;;;;3.67;2.07;;;;;;;;;;5035735;28;20231;-79
2022/04/03 10:12:18;;;;;;;3.07;1.90;;;;;;;;;;5036644;28;20207;-81
2022/04/03 10:14:45;;;;;;;4.50;1.97;;;;;;;;;;5034343;28;20210;-77
2022/04/03 10:17:12;;;;;;;3.33;2.00;;;;;;;;;;5039130;28;20214;-80
2022/04/03 10:19:41;;;;;;;4.27;2.17;;;;;;;;;;5045797;28;20916;-78
2022/04/03 10:22:10;;;;;;;3.30;1.90;;;;;;;;;;5039861;28;20227;-78
2022/04/03 10:24:39;;;;;;;4.30;2.23;;;;;;;;;;5034894;28;20280;-79
2022/04/03 10:27:08;;;;;;;4.03;2.10;;;;;;;;;;5032472;28;20255;-76
2022/04/03 10:29:38;;;;;;;4.73;2.17;;;;;;;;;;5033839;28;20322;-79
2022/04/03 10:32:06;;;;;;;5.63;2.67;;;;;;;;;;5040733;28;20207;-79
2022/04/03 10:34:45;;;;;;;4.27;2.20;;;;;;;;;;5053648;22;20233;-78
2022/04/03 10:37:25;;;;;;;5.70;2.57;;;;;;;;;;5042420;28;20298;-79
2022/04/03 10:39:53;;;;;;;4.47;2.07;;;;;;;;;;5046065;28;20491;-78
2022/04/03 10:42:25;;;;;;;5.17;2.40;;;;;;;;;;5048192;28;20535;-78
2022/04/03 10:45:07;;;;;;;5.90;2.20;;;;;;;;;;5044111;28;20211;-79
2022/04/03 10:47:34;;;;;;;5.40;2.60;;;;;;;;;;5050051;28;20238;-79
2022/04/03 10:50:03;;;;;;;5.13;3.10;;;;;;;;;;5050825;28;20227;-79
2022/04/03 10:52:49;;;;;;;5.40;2.30;;;;;;;;;;5043677;28;20207;-78
2022/04/03 10:55:20;;;;;;;3.73;2.30;;;;;;;;;;5051342;28;20737;-79
2022/04/03 10:57:48;;;;;;;4.40;2.40;;;;;;;;;;5055539;28;20661;-79
2022/04/03 11:00:39;;;;;;;5.67;2.73;;;;;;;;;;5046905;28;20223;-79
2022/04/03 11:03:25;;;;;;;5.37;2.70;;;;;;;;;;5051754;28;20219;-80
2022/04/03 11:05:53;;;;;;;6.73;3.50;;;;;;;;;;5045305;28;20234;-79
2022/04/03 11:08:41;;;;;;;6.90;2.60;;;;;;;;;;5048846;28;20259;-79
2022/04/03 11:11:10;;;;;;;4.30;2.30;;;;;;;;;;5047171;28;20270;-79
2022/04/03 11:13:39;;;;;;;3.50;2.17;;;;;;;;;;5048138;28;20206;-78
2022/04/03 11:16:08;;;;;;;4.03;2.63;;;;;;;;;;5047120;28;20208;-79
2022/04/03 11:18:37;;;;;;;4.93;2.50;;;;;;;;;;5054047;28;20217;-79
2022/04/03 11:21:11;;;;;;;5.07;2.60;;;;;;;;;;5050003;28;20242;-79
2022/04/03 11:23:38;;;;;;;5.33;2.63;;;;;;;;;;5054774;28;20230;-79
2022/04/03 11:26:06;;;;;;;3.60;2.30;;;;;;;;;;5048136;28;20284;-79
2022/04/03 11:28:35;;;;;;;4.07;2.27;;;;;;;;;;5052382;28;20743;-80
2022/04/03 11:31:06;;;;;;;4.97;2.17;;;;;;;;;;5055554;28;20293;-79
2022/04/03 11:33:33;;;;;;;3.43;1.77;;;;;;;;;;5055536;28;20262;-80
2022/04/03 11:36:07;;;;;;;3.70;2.10;;;;;;;;;;5051316;28;20251;-79
2022/04/03 11:38:38;;;;;;;4.00;2.00;;;;;;;;;;5047150;28;20256;-79
2022/04/03 11:41:06;;;;;;;2.97;1.80;;;;;;;;;;5053524;28;20214;-80
2022/04/03 11:43:35;;;;;;;3.90;2.27;;;;;;;;;;5066467;28;20210;-79
2022/04/03 11:46:03;;;;;;;4.10;2.10;;;;;;;;;;5050428;28;20199;-79
2022/04/03 11:48:31;;;;;;;4.53;2.17;;;;;;;;;;5051582;28;20215;-79
2022/04/03 11:51:05;;;;;;;4.73;1.80;;;;;;;;;;5048665;28;20306;-79
2022/04/03 11:53:32;;;;;;;5.07;2.30;;;;;;;;;;5052295;28;20230;-79
2022/04/03 11:56:05;;;;;;;3.50;2.27;;;;;;;;;;5048647;28;20200;-79
2022/04/03 11:58:33;;;;;;;3.63;2.30;;;;;;;;;;5049295;28;20316;-78
2022/04/03 12:01:01;;;;;;;3.20;1.90;;;;;;;;;;5051111;28;20237;-79
2022/04/03 12:03:28;;;;;;;4.70;2.23;;;;;;;;;;5049144;28;20212;-80
2022/04/03 12:06:11;;;;;;;3.73;1.80;;;;;;;;;;5053196;28;20233;-80
2022/04/03 12:08:39;;;;;;;5.60;1.70;;;;;;;;;;5050145;28;20650;-79
2022/04/03 12:11:16;;;;;;;6.63;2.17;;;;;;;;;;5048076;28;20297;-79
2022/04/03 12:13:43;;;;;;;3.70;2.23;;;;;;;;;;5058651;28;20208;-79
2022/04/03 12:16:16;;;;;;;3.67;2.17;;;;;;;;;;5060328;28;20296;-79
2022/04/03 12:18:56;;;;;;;4.27;2.10;;;;;;;;;;5057249;28;20285;-78
2022/04/03 12:21:23;;;;;;;4.10;1.80;;;;;;;;;;5054430;28;20210;-80
2022/04/03 12:24:03;;;;;;;4.70;1.97;;;;;;;;;;5053731;28;20196;-78
2022/04/03 12:26:30;;;;;;;4.03;2.07;;;;;;;;;;5052481;28;20202;-79
2022/04/03 12:29:00;;;;;;;2.73;1.90;;;;;;;;;;5059804;28;20326;-79
2022/04/03 12:31:29;;;;;;;3.00;2.07;;;;;;;;;;5056101;28;20204;-79
2022/04/03 12:34:10;;;;;;;3.60;2.20;;;;;;;;;;5058255;28;20301;-79
2022/04/03 12:36:44;;;;;;;5.13;2.07;;;;;;;;;;5058981;28;20202;-79
2022/04/03 12:39:30;;;;;;;2.90;2.10;;;;;;;;;;5053972;28;20718;-78
2022/04/03 12:41:58;;;;;;;3.40;2.20;;;;;;;;;;5043685;28;20213;-78
2022/04/03 12:44:28;;;;;;;3.20;2.10;;;;;;;;;;5046423;28;20292;-80
2022/04/03 12:46:57;;;;;;;4.37;2.37;;;;;;;;;;5045149;28;20246;-79
2022/04/03 12:49:24;;;;;;;5.37;2.10;;;;;;;;;;5045592;28;21302;-79
2022/04/03 12:51:51;;;;;;;3.80;2.20;;;;;;;;;;5048145;28;20207;-79
2022/04/03 12:54:19;;;;;;;4.87;2.10;;;;;;;;;;5046486;28;20254;-78
2022/04/03 12:59:38;;;;;;;4.67;2.50;;;;;;;;;;5050360;28;20778;-78
2022/04/03 13:02:09;;;;;;;3.50;2.17;;;;;;;;;;5046865;28;20211;-78
2022/04/03 13:04:44;;;;;;;3.27;2.10;;;;;;;;;;5044715;28;20199;-79
2022/04/03 13:07:11;;;;;;;4.83;2.27;;;;;;;;;;5047880;28;20206;-79
2022/04/03 13:09:46;;;;;;;5.43;2.90;;;;;;;;;;5051670;28;20373;-79
2022/04/03 13:12:13;;;;;;;7.87;3.60;;;;;;;;;;5050937;28;20203;-79
2022/04/03 13:14:40;;;;;;;6.80;2.93;;;;;;;;;;5051160;28;20707;-79
2022/04/03 13:17:13;;;;;;;4.47;2.40;;;;;;;;;;5047630;28;20211;-79
2022/04/03 13:19:40;;;;;;;4.83;2.73;;;;;;;;;;5036116;28;21297;-78
2022/04/03 13:22:10;;;;;;;4.40;2.50;;;;;;;;;;5035454;28;21798;-79
2022/04/03 13:24:37;;;;;;;4.83;2.60;;;;;;;;;;5040783;28;20207;-80
2022/04/03 13:27:05;;;;;;;3.70;2.33;;;;;;;;;;5050041;28;20660;-79
2022/04/03 13:29:34;;;;;;;4.40;2.40;;;;;;;;;;5047446;28;20615;-79
2022/04/03 13:32:01;;;;;;;3.83;2.50;;;;;;;;;;5047544;28;20657;-79
2022/04/03 13:34:30;;;;;;;4.07;2.53;;;;;;;;;;5048953;28;20223;-80
2022/04/03 13:36:57;;;;;;;4.40;2.57;;;;;;;;;;5040339;28;20203;-79
2022/04/03 13:39:25;;;;;;;4.47;2.60;;;;;;;;;;5047000;28;20296;-79
2022/04/03 13:41:54;;;;;;;4.43;2.67;;;;;;;;;;5048998;28;20216;-79
2022/04/03 13:44:21;;;;;;;3.53;2.60;;;;;;;;;;5043718;28;20264;-79
2022/04/03 13:46:52;;;;;;;3.73;2.60;;;;;;;;;;5040131;28;20239;-79
2022/04/03 13:49:19;;;;;;;6.63;2.60;;;;;;;;;;5047434;28;20224;-78
2022/04/03 13:51:48;;;;;;;4.50;3.30;;;;;;;;;;5051351;28;20290;-79
2022/04/03 13:54:15;;;;;;;5.63;3.03;;;;;;;;;;5051574;28;20281;-78
2022/04/03 13:56:42;;;;;;;3.53;2.30;;;;;;;;;;5047704;28;20198;-79
2022/04/03 13:59:10;;;;;;;5.30;3.10;;;;;;;;;;5055435;28;20219;-79
2022/04/03 14:01:37;;;;;;;4.40;3.00;;;;;;;;;;5060981;28;20207;-79
2022/04/03 14:04:05;;;;;;;4.27;3.10;;;;;;;;;;5055505;28;20306;-79
2022/04/03 14:06:32;;;;;;;5.50;3.07;;;;;;;;;;5046939;28;20708;-79
2022/04/03 14:09:01;;;;;;;7.17;2.50;;;;;;;;;;5049160;28;20799;-79
2022/04/03 14:11:29;;;;;;;5.17;2.47;;;;;;;;;;5051414;28;20656;-79
2022/04/03 14:13:56;;;;;;;4.83;2.43;;;;;;;;;;5053272;28;20736;-78
2022/04/03 14:16:23;;;;;;;3.77;2.57;;;;;;;;;;5052807;28;20297;-78
2022/04/03 14:18:50;;;;;;;4.00;2.50;;;;;;;;;;5050206;28;20286;-79
2022/04/03 14:21:25;;;;;;;5.87;2.50;;;;;;;;;;5054300;28;20211;-78
2022/04/03 14:23:52;;;;;;;4.30;2.73;;;;;;;;;;5050139;28;20270;-80
2022/04/03 14:26:21;;;;;;;5.23;2.87;;;;;;;;;;5050501;28;20294;-78
2022/04/03 14:28:49;;;;;;;3.73;2.47;;;;;;;;;;5051050;28;20639;-79
2022/04/03 14:31:16;;;;;;;2.93;2.00;;;;;;;;;;5056241;28;20292;-79
2022/04/03 14:33:44;;;;;;;4.73;2.20;;;;;;;;;;5049504;28;20214;-79
2022/04/03 14:36:13;;;;;;;5.27;2.20;;;;;;;;;;5055171;28;20230;-80
2022/04/03 14:38:41;;;;;;;8.23;3.00;;;;;;;;;;5048945;28;20242;-81
2022/04/03 14:41:09;;;;;;;6.07;2.37;;;;;;;;;;5055778;28;20200;-80
2022/04/03 14:43:37;;;;;;;3.57;2.10;;;;;;;;;;5046943;28;20289;-78
2022/04/03 14:46:04;;;;;;;3.73;2.13;;;;;;;;;;5055273;28;20673;-78
2022/04/03 14:48:32;;;;;;;3.90;2.27;;;;;;;;;;5047768;28;20222;-78